sensor_id;sensor_type;location;lat;lon;timestamp;P1;durP1;ratioP1;P2;durP2;ratioP2
3175;SDS011;1599;51.564;6.990;2023-07-29T00:01:01;6.43;;;5.23;;
3175;SDS011;1599;51.564;6.990;2023-07-29T00:03:27;5.40;;;4.43;;
3175;SDS011;1599;51.564;6.990;2023-07-29T00:05:55;6.50;;;4.77;;
3175;SDS011;1599;51.564;6.990;2023-07-29T00:08:21;12.00;;;4.33;;
3175;SDS011;1599;51.564;6.990;2023-07-29T00:10:46;6.07;;;4.50;;
3175;SDS011;1599;51.564;6.990;2023-07-29T00:13:12;12.70;;;5.07;;
3175;SDS011;1599;51.564;6.990;2023-07-29T00:15:38;6.60;;;4.40;;
3175;SDS011;1599;51.564;6.990;2023-07-29T00:18:03;5.67;;;4.30;;
3175;SDS011;1599;51.564;6.990;2023-07-29T00:20:29;7.60;;;4.53;;
3175;SDS011;1599;51.564;6.990;2023-07-29T00:22:55;5.20;;;4.30;;
3175;SDS011;1599;51.564;6.990;2023-07-29T00:25:23;6.47;;;4.60;;
3175;SDS011;1599;51.564;6.990;2023-07-29T00:27:48;6.47;;;4.70;;
3175;SDS011;1599;51.564;6.990;2023-07-29T00:30:14;5.50;;;4.33;;
3175;SDS011;1599;51.564;6.990;2023-07-29T00:32:40;8.43;;;5.13;;
3175;SDS011;1599;51.564;6.990;2023-07-29T00:35:06;5.37;;;4.37;;
3175;SDS011;1599;51.564;6.990;2023-07-29T00:37:32;6.80;;;5.00;;
3175;SDS011;1599;51.564;6.990;2023-07-29T00:39:58;6.30;;;5.07;;
3175;SDS011;1599;51.564;6.990;2023-07-29T00:42:24;7.83;;;5.03;;
3175;SDS011;1599;51.564;6.990;2023-07-29T00:44:50;9.77;;;6.03;;
3175;SDS011;1599;51.564;6.990;2023-07-29T00:47:16;10.80;;;5.50;;
3175;SDS011;1599;51.564;6.990;2023-07-29T00:49:43;5.33;;;4.10;;
3175;SDS011;1599;51.564;6.990;2023-07-29T00:52:09;5.20;;;4.00;;
3175;SDS011;1599;51.564;6.990;2023-07-29T00:54:37;5.90;;;4.77;;
3175;SDS011;1599;51.564;6.990;2023-07-29T00:57:06;5.53;;;4.20;;
3175;SDS011;1599;51.564;6.990;2023-07-29T00:59:35;6.33;;;4.67;;
3175;SDS011;1599;51.564;6.990;2023-07-29T01:02:02;5.30;;;4.43;;
3175;SDS011;1599;51.564;6.990;2023-07-29T01:04:28;7.33;;;5.33;;
3175;SDS011;1599;51.564;6.990;2023-07-29T01:06:58;5.90;;;5.07;;
3175;SDS011;1599;51.564;6.990;2023-07-29T01:12:42;5.63;;;4.80;;
3175;SDS011;1599;51.564;6.990;2023-07-29T01:15:24;9.03;;;4.67;;
3175;SDS011;1599;51.564;6.990;2023-07-29T01:18:31;7.07;;;5.10;;
3175;SDS011;1599;51.564;6.990;2023-07-29T01:21:02;7.10;;;4.50;;
3175;SDS011;1599;51.564;6.990;2023-07-29T01:23:33;5.90;;;4.90;;
3175;SDS011;1599;51.564;6.990;2023-07-29T01:26:00;7.00;;;5.30;;
3175;SDS011;1599;51.564;6.990;2023-07-29T01:28:27;9.53;;;6.10;;
3175;SDS011;1599;51.564;6.990;2023-07-29T01:31:06;6.60;;;5.30;;
3175;SDS011;1599;51.564;6.990;2023-07-29T01:34:06;7.40;;;5.20;;
3175;SDS011;1599;51.564;6.990;2023-07-29T01:36:54;6.87;;;5.03;;
3175;SDS011;1599;51.564;6.990;2023-07-29T01:39:25;7.80;;;5.40;;
3175;SDS011;1599;51.564;6.990;2023-07-29T01:41:54;7.03;;;5.00;;
3175;SDS011;1599;51.564;6.990;2023-07-29T01:44:20;7.97;;;4.73;;
3175;SDS011;1599;51.564;6.990;2023-07-29T01:46:45;6.53;;;5.47;;
3175;SDS011;1599;51.564;6.990;2023-07-29T01:49:12;6.13;;;4.40;;
3175;SDS011;1599;51.564;6.990;2023-07-29T01:51:38;8.10;;;5.00;;
3175;SDS011;1599;51.564;6.990;2023-07-29T01:54:03;5.80;;;5.07;;
3175;SDS011;1599;51.564;6.990;2023-07-29T01:56:29;7.13;;;4.93;;
3175;SDS011;1599;51.564;6.990;2023-07-29T01:58:55;6.87;;;4.97;;
3175;SDS011;1599;51.564;6.990;2023-07-29T02:01:21;8.90;;;5.40;;
3175;SDS011;1599;51.564;6.990;2023-07-29T02:03:47;5.10;;;4.47;;
3175;SDS011;1599;51.564;6.990;2023-07-29T02:06:19;6.03;;;5.33;;
3175;SDS011;1599;51.564;6.990;2023-07-29T02:08:45;7.30;;;5.23;;
3175;SDS011;1599;51.564;6.990;2023-07-29T02:11:11;6.03;;;4.80;;
3175;SDS011;1599;51.564;6.990;2023-07-29T02:13:37;7.87;;;5.43;;
3175;SDS011;1599;51.564;6.990;2023-07-29T02:16:02;6.13;;;5.50;;
3175;SDS011;1599;51.564;6.990;2023-07-29T02:18:28;7.10;;;5.43;;
3175;SDS011;1599;51.564;6.990;2023-07-29T02:20:54;9.10;;;5.33;;
3175;SDS011;1599;51.564;6.990;2023-07-29T02:23:20;6.53;;;5.83;;
3175;SDS011;1599;51.564;6.990;2023-07-29T02:25:46;9.17;;;5.77;;
3175;SDS011;1599;51.564;6.990;2023-07-29T02:28:11;6.40;;;5.60;;
3175;SDS011;1599;51.564;6.990;2023-07-29T02:30:40;7.40;;;5.50;;
3175;SDS011;1599;51.564;6.990;2023-07-29T02:33:06;8.93;;;5.73;;
3175;SDS011;1599;51.564;6.990;2023-07-29T02:35:32;6.50;;;5.73;;
3175;SDS011;1599;51.564;6.990;2023-07-29T02:37:58;7.43;;;5.80;;
3175;SDS011;1599;51.564;6.990;2023-07-29T02:40:24;5.80;;;4.87;;
3175;SDS011;1599;51.564;6.990;2023-07-29T02:42:51;9.80;;;4.97;;
3175;SDS011;1599;51.564;6.990;2023-07-29T02:45:18;8.37;;;4.60;;
3175;SDS011;1599;51.564;6.990;2023-07-29T02:47:43;5.37;;;4.80;;
3175;SDS011;1599;51.564;6.990;2023-07-29T02:50:09;6.00;;;4.73;;
3175;SDS011;1599;51.564;6.990;2023-07-29T02:52:35;5.90;;;5.20;;
3175;SDS011;1599;51.564;6.990;2023-07-29T02:55:00;7.33;;;5.77;;
3175;SDS011;1599;51.564;6.990;2023-07-29T02:57:26;7.03;;;5.60;;
3175;SDS011;1599;51.564;6.990;2023-07-29T02:59:52;6.13;;;4.97;;
3175;SDS011;1599;51.564;6.990;2023-07-29T03:02:18;7.10;;;5.67;;
3175;SDS011;1599;51.564;6.990;2023-07-29T03:04:43;7.60;;;5.30;;
3175;SDS011;1599;51.564;6.990;2023-07-29T03:07:09;6.93;;;5.50;;
3175;SDS011;1599;51.564;6.990;2023-07-29T03:09:35;9.43;;;5.77;;
3175;SDS011;1599;51.564;6.990;2023-07-29T03:12:01;6.03;;;5.17;;
3175;SDS011;1599;51.564;6.990;2023-07-29T03:14:27;6.50;;;5.90;;
3175;SDS011;1599;51.564;6.990;2023-07-29T03:16:53;7.60;;;5.33;;
3175;SDS011;1599;51.564;6.990;2023-07-29T03:19:19;8.40;;;5.67;;
3175;SDS011;1599;51.564;6.990;2023-07-29T03:21:45;10.50;;;5.83;;
3175;SDS011;1599;51.564;6.990;2023-07-29T03:24:11;8.50;;;6.37;;
3175;SDS011;1599;51.564;6.990;2023-07-29T03:26:36;8.53;;;5.60;;
3175;SDS011;1599;51.564;6.990;2023-07-29T03:29:02;8.27;;;6.53;;
3175;SDS011;1599;51.564;6.990;2023-07-29T03:31:28;10.10;;;6.00;;
3175;SDS011;1599;51.564;6.990;2023-07-29T03:33:53;8.53;;;5.97;;
3175;SDS011;1599;51.564;6.990;2023-07-29T03:36:20;9.00;;;5.37;;
3175;SDS011;1599;51.564;6.990;2023-07-29T03:38:46;9.93;;;6.17;;
3175;SDS011;1599;51.564;6.990;2023-07-29T03:41:12;7.90;;;5.70;;
3175;SDS011;1599;51.564;6.990;2023-07-29T03:43:38;10.20;;;6.40;;
3175;SDS011;1599;51.564;6.990;2023-07-29T03:46:03;6.03;;;5.43;;
3175;SDS011;1599;51.564;6.990;2023-07-29T03:48:30;6.53;;;5.50;;
3175;SDS011;1599;51.564;6.990;2023-07-29T03:50:56;8.93;;;5.60;;
3175;SDS011;1599;51.564;6.990;2023-07-29T03:53:22;10.83;;;7.27;;
3175;SDS011;1599;51.564;6.990;2023-07-29T03:55:48;12.33;;;7.37;;
3175;SDS011;1599;51.564;6.990;2023-07-29T03:58:15;7.63;;;6.53;;
3175;SDS011;1599;51.564;6.990;2023-07-29T04:00:40;8.03;;;6.10;;
3175;SDS011;1599;51.564;6.990;2023-07-29T04:03:06;9.23;;;5.80;;
3175;SDS011;1599;51.564;6.990;2023-07-29T04:05:32;12.67;;;5.73;;
3175;SDS011;1599;51.564;6.990;2023-07-29T04:07:58;6.70;;;5.87;;
3175;SDS011;1599;51.564;6.990;2023-07-29T04:10:23;8.67;;;6.90;;
3175;SDS011;1599;51.564;6.990;2023-07-29T04:12:49;9.33;;;6.77;;
3175;SDS011;1599;51.564;6.990;2023-07-29T04:15:15;12.67;;;6.80;;
3175;SDS011;1599;51.564;6.990;2023-07-29T04:17:41;7.10;;;6.30;;
3175;SDS011;1599;51.564;6.990;2023-07-29T04:20:06;12.10;;;6.90;;
3175;SDS011;1599;51.564;6.990;2023-07-29T04:22:33;9.77;;;7.00;;
3175;SDS011;1599;51.564;6.990;2023-07-29T04:24:58;8.77;;;7.10;;
3175;SDS011;1599;51.564;6.990;2023-07-29T04:27:24;8.70;;;7.07;;
3175;SDS011;1599;51.564;6.990;2023-07-29T04:29:50;8.87;;;6.30;;
3175;SDS011;1599;51.564;6.990;2023-07-29T04:32:16;13.60;;;6.50;;
3175;SDS011;1599;51.564;6.990;2023-07-29T04:34:41;7.50;;;5.40;;
3175;SDS011;1599;51.564;6.990;2023-07-29T04:37:07;5.77;;;5.10;;
3175;SDS011;1599;51.564;6.990;2023-07-29T04:39:33;5.63;;;4.60;;
3175;SDS011;1599;51.564;6.990;2023-07-29T04:41:58;6.47;;;4.60;;
3175;SDS011;1599;51.564;6.990;2023-07-29T04:44:25;7.83;;;4.70;;
3175;SDS011;1599;51.564;6.990;2023-07-29T04:46:51;9.03;;;5.60;;
3175;SDS011;1599;51.564;6.990;2023-07-29T04:49:17;7.37;;;4.60;;
3175;SDS011;1599;51.564;6.990;2023-07-29T04:51:43;8.50;;;5.50;;
3175;SDS011;1599;51.564;6.990;2023-07-29T04:54:08;9.23;;;7.03;;
3175;SDS011;1599;51.564;6.990;2023-07-29T04:56:34;10.50;;;6.67;;
3175;SDS011;1599;51.564;6.990;2023-07-29T04:59:00;10.63;;;6.90;;
3175;SDS011;1599;51.564;6.990;2023-07-29T05:01:26;8.43;;;5.63;;
3175;SDS011;1599;51.564;6.990;2023-07-29T05:03:51;9.53;;;6.50;;
3175;SDS011;1599;51.564;6.990;2023-07-29T05:06:17;11.33;;;6.60;;
3175;SDS011;1599;51.564;6.990;2023-07-29T05:08:43;8.27;;;6.33;;
3175;SDS011;1599;51.564;6.990;2023-07-29T05:11:09;11.13;;;7.77;;
3175;SDS011;1599;51.564;6.990;2023-07-29T05:13:35;8.70;;;6.67;;
3175;SDS011;1599;51.564;6.990;2023-07-29T05:16:02;10.90;;;7.37;;
3175;SDS011;1599;51.564;6.990;2023-07-29T05:18:27;15.80;;;7.00;;
3175;SDS011;1599;51.564;6.990;2023-07-29T05:20:53;9.47;;;7.20;;
3175;SDS011;1599;51.564;6.990;2023-07-29T05:23:19;10.30;;;7.40;;
3175;SDS011;1599;51.564;6.990;2023-07-29T05:25:45;9.17;;;6.30;;
3175;SDS011;1599;51.564;6.990;2023-07-29T05:28:11;9.57;;;5.73;;
3175;SDS011;1599;51.564;6.990;2023-07-29T05:30:36;5.97;;;4.70;;
3175;SDS011;1599;51.564;6.990;2023-07-29T05:33:03;7.80;;;5.50;;
3175;SDS011;1599;51.564;6.990;2023-07-29T05:35:29;7.23;;;4.50;;
3175;SDS011;1599;51.564;6.990;2023-07-29T05:37:55;7.20;;;4.70;;
3175;SDS011;1599;51.564;6.990;2023-07-29T05:40:21;4.63;;;3.77;;
3175;SDS011;1599;51.564;6.990;2023-07-29T05:42:47;6.10;;;3.80;;
3175;SDS011;1599;51.564;6.990;2023-07-29T05:45:13;5.30;;;3.27;;
3175;SDS011;1599;51.564;6.990;2023-07-29T05:47:39;3.50;;;3.20;;
3175;SDS011;1599;51.564;6.990;2023-07-29T05:50:04;4.80;;;3.67;;
3175;SDS011;1599;51.564;6.990;2023-07-29T05:52:31;7.30;;;3.70;;
3175;SDS011;1599;51.564;6.990;2023-07-29T05:54:57;10.30;;;3.30;;
3175;SDS011;1599;51.564;6.990;2023-07-29T05:57:23;4.07;;;2.90;;
3175;SDS011;1599;51.564;6.990;2023-07-29T05:59:48;5.60;;;3.43;;
3175;SDS011;1599;51.564;6.990;2023-07-29T06:02:14;3.97;;;2.90;;
3175;SDS011;1599;51.564;6.990;2023-07-29T06:04:40;3.90;;;2.50;;
3175;SDS011;1599;51.564;6.990;2023-07-29T06:07:06;3.20;;;2.50;;
3175;SDS011;1599;51.564;6.990;2023-07-29T06:09:32;5.10;;;2.80;;
3175;SDS011;1599;51.564;6.990;2023-07-29T06:11:57;4.00;;;2.83;;
3175;SDS011;1599;51.564;6.990;2023-07-29T06:14:23;3.57;;;2.57;;
3175;SDS011;1599;51.564;6.990;2023-07-29T06:16:49;4.30;;;2.20;;
3175;SDS011;1599;51.564;6.990;2023-07-29T06:19:15;4.43;;;3.10;;
3175;SDS011;1599;51.564;6.990;2023-07-29T06:21:41;3.53;;;2.73;;
3175;SDS011;1599;51.564;6.990;2023-07-29T06:24:07;8.43;;;2.80;;
3175;SDS011;1599;51.564;6.990;2023-07-29T06:26:33;4.57;;;2.97;;
3175;SDS011;1599;51.564;6.990;2023-07-29T06:29:01;5.20;;;3.10;;
3175;SDS011;1599;51.564;6.990;2023-07-29T06:31:27;7.40;;;3.00;;
3175;SDS011;1599;51.564;6.990;2023-07-29T06:33:53;3.80;;;3.00;;
3175;SDS011;1599;51.564;6.990;2023-07-29T06:36:19;4.37;;;3.30;;
3175;SDS011;1599;51.564;6.990;2023-07-29T06:38:45;3.80;;;3.03;;
3175;SDS011;1599;51.564;6.990;2023-07-29T06:41:11;3.53;;;2.70;;
3175;SDS011;1599;51.564;6.990;2023-07-29T06:43:37;3.63;;;2.73;;
3175;SDS011;1599;51.564;6.990;2023-07-29T06:46:03;4.67;;;2.60;;
3175;SDS011;1599;51.564;6.990;2023-07-29T06:48:28;3.97;;;3.03;;
3175;SDS011;1599;51.564;6.990;2023-07-29T06:50:54;4.47;;;2.90;;
3175;SDS011;1599;51.564;6.990;2023-07-29T06:53:21;14.53;;;9.57;;
3175;SDS011;1599;51.564;6.990;2023-07-29T06:55:46;5.27;;;3.47;;
3175;SDS011;1599;51.564;6.990;2023-07-29T06:58:12;4.43;;;3.27;;
3175;SDS011;1599;51.564;6.990;2023-07-29T07:00:38;4.63;;;2.80;;
3175;SDS011;1599;51.564;6.990;2023-07-29T07:03:04;5.50;;;2.73;;
3175;SDS011;1599;51.564;6.990;2023-07-29T07:05:29;3.17;;;2.40;;
3175;SDS011;1599;51.564;6.990;2023-07-29T07:07:55;3.60;;;2.40;;
3175;SDS011;1599;51.564;6.990;2023-07-29T07:10:21;7.33;;;2.80;;
3175;SDS011;1599;51.564;6.990;2023-07-29T07:12:46;3.70;;;2.43;;
3175;SDS011;1599;51.564;6.990;2023-07-29T07:15:12;3.20;;;2.40;;
3175;SDS011;1599;51.564;6.990;2023-07-29T07:17:38;5.40;;;2.77;;
3175;SDS011;1599;51.564;6.990;2023-07-29T07:20:04;4.27;;;2.87;;
3175;SDS011;1599;51.564;6.990;2023-07-29T07:22:31;5.40;;;2.73;;
3175;SDS011;1599;51.564;6.990;2023-07-29T07:24:56;4.83;;;3.07;;
3175;SDS011;1599;51.564;6.990;2023-07-29T07:27:22;4.37;;;3.00;;
3175;SDS011;1599;51.564;6.990;2023-07-29T07:29:48;4.30;;;2.80;;
3175;SDS011;1599;51.564;6.990;2023-07-29T07:32:14;4.10;;;2.37;;
3175;SDS011;1599;51.564;6.990;2023-07-29T07:34:39;3.60;;;2.57;;
3175;SDS011;1599;51.564;6.990;2023-07-29T07:37:08;6.30;;;2.83;;
3175;SDS011;1599;51.564;6.990;2023-07-29T07:39:33;6.80;;;3.07;;
3175;SDS011;1599;51.564;6.990;2023-07-29T07:41:59;3.90;;;2.70;;
3175;SDS011;1599;51.564;6.990;2023-07-29T07:44:25;4.80;;;2.90;;
3175;SDS011;1599;51.564;6.990;2023-07-29T07:46:51;4.93;;;2.70;;
3175;SDS011;1599;51.564;6.990;2023-07-29T07:49:18;5.47;;;2.40;;
3175;SDS011;1599;51.564;6.990;2023-07-29T07:51:44;5.83;;;2.60;;
3175;SDS011;1599;51.564;6.990;2023-07-29T07:54:10;4.63;;;2.10;;
3175;SDS011;1599;51.564;6.990;2023-07-29T07:56:35;4.90;;;2.13;;
3175;SDS011;1599;51.564;6.990;2023-07-29T07:59:01;7.30;;;2.77;;
3175;SDS011;1599;51.564;6.990;2023-07-29T08:01:27;5.10;;;2.77;;
3175;SDS011;1599;51.564;6.990;2023-07-29T08:03:58;3.30;;;2.20;;
3175;SDS011;1599;51.564;6.990;2023-07-29T08:06:24;5.07;;;3.27;;
3175;SDS011;1599;51.564;6.990;2023-07-29T08:08:50;8.03;;;2.80;;
3175;SDS011;1599;51.564;6.990;2023-07-29T08:11:16;6.63;;;2.90;;
3175;SDS011;1599;51.564;6.990;2023-07-29T08:13:41;3.20;;;2.57;;
3175;SDS011;1599;51.564;6.990;2023-07-29T08:16:07;6.00;;;2.60;;
3175;SDS011;1599;51.564;6.990;2023-07-29T08:18:33;4.23;;;2.60;;
3175;SDS011;1599;51.564;6.990;2023-07-29T08:20:59;4.20;;;3.10;;
3175;SDS011;1599;51.564;6.990;2023-07-29T08:23:33;4.70;;;3.17;;
3175;SDS011;1599;51.564;6.990;2023-07-29T08:26:01;4.80;;;3.90;;
3175;SDS011;1599;51.564;6.990;2023-07-29T08:28:31;5.80;;;4.03;;
3175;SDS011;1599;51.564;6.990;2023-07-29T08:30:58;6.60;;;3.87;;
3175;SDS011;1599;51.564;6.990;2023-07-29T08:33:25;5.33;;;3.73;;
3175;SDS011;1599;51.564;6.990;2023-07-29T08:35:51;3.93;;;2.70;;
3175;SDS011;1599;51.564;6.990;2023-07-29T08:38:17;3.70;;;2.60;;
3175;SDS011;1599;51.564;6.990;2023-07-29T08:41:26;2.80;;;1.70;;
3175;SDS011;1599;51.564;6.990;2023-07-29T08:43:56;4.40;;;2.30;;
3175;SDS011;1599;51.564;6.990;2023-07-29T08:46:32;3.77;;;2.10;;
3175;SDS011;1599;51.564;6.990;2023-07-29T08:48:59;2.67;;;2.07;;
3175;SDS011;1599;51.564;6.990;2023-07-29T08:51:27;4.90;;;2.13;;
3175;SDS011;1599;51.564;6.990;2023-07-29T08:53:54;3.40;;;2.17;;
3175;SDS011;1599;51.564;6.990;2023-07-29T08:56:21;3.40;;;3.10;;
3175;SDS011;1599;51.564;6.990;2023-07-29T08:58:47;4.13;;;3.00;;
3175;SDS011;1599;51.564;6.990;2023-07-29T09:01:13;3.20;;;2.80;;
3175;SDS011;1599;51.564;6.990;2023-07-29T09:03:40;3.27;;;2.60;;
3175;SDS011;1599;51.564;6.990;2023-07-29T09:06:07;5.23;;;2.37;;
3175;SDS011;1599;51.564;6.990;2023-07-29T09:08:33;2.77;;;2.20;;
3175;SDS011;1599;51.564;6.990;2023-07-29T09:10:59;3.07;;;2.20;;
3175;SDS011;1599;51.564;6.990;2023-07-29T09:13:26;3.70;;;1.70;;
3175;SDS011;1599;51.564;6.990;2023-07-29T09:15:55;2.53;;;1.70;;
3175;SDS011;1599;51.564;6.990;2023-07-29T09:18:23;3.37;;;2.00;;
3175;SDS011;1599;51.564;6.990;2023-07-29T09:20:50;2.87;;;2.30;;
3175;SDS011;1599;51.564;6.990;2023-07-29T09:23:17;2.70;;;2.40;;
3175;SDS011;1599;51.564;6.990;2023-07-29T09:25:42;2.83;;;2.10;;
3175;SDS011;1599;51.564;6.990;2023-07-29T09:28:11;2.80;;;2.40;;
3175;SDS011;1599;51.564;6.990;2023-07-29T09:30:39;2.90;;;2.43;;
3175;SDS011;1599;51.564;6.990;2023-07-29T09:33:06;3.27;;;2.57;;
3175;SDS011;1599;51.564;6.990;2023-07-29T09:35:33;3.90;;;2.53;;
3175;SDS011;1599;51.564;6.990;2023-07-29T09:38:01;12.10;;;2.93;;
3175;SDS011;1599;51.564;6.990;2023-07-29T09:40:39;10.70;;;3.13;;
3175;SDS011;1599;51.564;6.990;2023-07-29T09:43:06;2.63;;;2.00;;
3175;SDS011;1599;51.564;6.990;2023-07-29T09:45:36;2.93;;;1.90;;
3175;SDS011;1599;51.564;6.990;2023-07-29T09:48:03;4.23;;;2.00;;
3175;SDS011;1599;51.564;6.990;2023-07-29T09:50:35;3.40;;;2.00;;
3175;SDS011;1599;51.564;6.990;2023-07-29T09:53:01;4.60;;;2.00;;
3175;SDS011;1599;51.564;6.990;2023-07-29T09:55:28;2.63;;;2.00;;
3175;SDS011;1599;51.564;6.990;2023-07-29T09:57:58;4.13;;;3.00;;
3175;SDS011;1599;51.564;6.990;2023-07-29T10:00:33;5.00;;;2.70;;
3175;SDS011;1599;51.564;6.990;2023-07-29T10:02:59;3.97;;;2.03;;
3175;SDS011;1599;51.564;6.990;2023-07-29T10:05:26;3.20;;;2.40;;
3175;SDS011;1599;51.564;6.990;2023-07-29T10:07:54;4.93;;;2.50;;
3175;SDS011;1599;51.564;6.990;2023-07-29T10:10:21;3.33;;;2.40;;
3175;SDS011;1599;51.564;6.990;2023-07-29T10:12:47;4.73;;;2.73;;
3175;SDS011;1599;51.564;6.990;2023-07-29T10:15:13;4.33;;;3.00;;
3175;SDS011;1599;51.564;6.990;2023-07-29T10:17:39;7.17;;;4.00;;
3175;SDS011;1599;51.564;6.990;2023-07-29T10:20:05;6.00;;;3.57;;
3175;SDS011;1599;51.564;6.990;2023-07-29T10:22:40;4.50;;;3.43;;
3175;SDS011;1599;51.564;6.990;2023-07-29T10:25:09;4.10;;;3.70;;
3175;SDS011;1599;51.564;6.990;2023-07-29T10:27:43;5.80;;;3.00;;
3175;SDS011;1599;51.564;6.990;2023-07-29T10:30:13;4.73;;;2.97;;
3175;SDS011;1599;51.564;6.990;2023-07-29T10:32:41;3.30;;;3.00;;
3175;SDS011;1599;51.564;6.990;2023-07-29T10:35:09;4.47;;;3.70;;
3175;SDS011;1599;51.564;6.990;2023-07-29T10:37:40;5.07;;;3.90;;
3175;SDS011;1599;51.564;6.990;2023-07-29T10:40:10;4.57;;;3.30;;
3175;SDS011;1599;51.564;6.990;2023-07-29T10:42:37;4.40;;;3.63;;
3175;SDS011;1599;51.564;6.990;2023-07-29T10:45:19;5.83;;;3.97;;
3175;SDS011;1599;51.564;6.990;2023-07-29T10:47:46;4.70;;;4.20;;
3175;SDS011;1599;51.564;6.990;2023-07-29T10:50:19;5.30;;;3.90;;
3175;SDS011;1599;51.564;6.990;2023-07-29T10:52:50;3.60;;;3.30;;
3175;SDS011;1599;51.564;6.990;2023-07-29T10:57:51;3.87;;;3.43;;
3175;SDS011;1599;51.564;6.990;2023-07-29T11:00:19;4.27;;;2.97;;
3175;SDS011;1599;51.564;6.990;2023-07-29T11:02:56;3.10;;;2.50;;
3175;SDS011;1599;51.564;6.990;2023-07-29T11:05:26;3.17;;;2.77;;
3175;SDS011;1599;51.564;6.990;2023-07-29T11:08:15;4.30;;;2.10;;
3175;SDS011;1599;51.564;6.990;2023-07-29T11:10:58;4.33;;;2.50;;
3175;SDS011;1599;51.564;6.990;2023-07-29T11:13:37;2.73;;;2.10;;
3175;SDS011;1599;51.564;6.990;2023-07-29T11:16:04;2.70;;;2.10;;
3175;SDS011;1599;51.564;6.990;2023-07-29T11:18:31;3.27;;;2.23;;
3175;SDS011;1599;51.564;6.990;2023-07-29T11:20:59;2.17;;;1.67;;
3175;SDS011;1599;51.564;6.990;2023-07-29T11:23:28;3.80;;;2.30;;
3175;SDS011;1599;51.564;6.990;2023-07-29T11:25:55;3.60;;;2.10;;
3175;SDS011;1599;51.564;6.990;2023-07-29T11:28:21;2.47;;;1.93;;
3175;SDS011;1599;51.564;6.990;2023-07-29T11:30:47;5.30;;;2.43;;
3175;SDS011;1599;51.564;6.990;2023-07-29T11:33:16;2.67;;;1.97;;
3175;SDS011;1599;51.564;6.990;2023-07-29T11:35:45;2.20;;;1.87;;
3175;SDS011;1599;51.564;6.990;2023-07-29T11:38:14;4.27;;;1.90;;
3175;SDS011;1599;51.564;6.990;2023-07-29T11:40:42;3.63;;;2.23;;
3175;SDS011;1599;51.564;6.990;2023-07-29T11:43:08;5.40;;;2.47;;
3175;SDS011;1599;51.564;6.990;2023-07-29T11:45:33;4.83;;;2.20;;
3175;SDS011;1599;51.564;6.990;2023-07-29T11:48:00;3.70;;;2.40;;
3175;SDS011;1599;51.564;6.990;2023-07-29T11:50:27;2.67;;;2.13;;
3175;SDS011;1599;51.564;6.990;2023-07-29T11:52:52;2.77;;;2.17;;
3175;SDS011;1599;51.564;6.990;2023-07-29T11:55:19;2.70;;;2.13;;
3175;SDS011;1599;51.564;6.990;2023-07-29T11:57:46;3.43;;;2.77;;
3175;SDS011;1599;51.564;6.990;2023-07-29T12:00:17;3.63;;;2.30;;
3175;SDS011;1599;51.564;6.990;2023-07-29T12:02:43;5.70;;;2.10;;
3175;SDS011;1599;51.564;6.990;2023-07-29T12:05:11;3.80;;;2.50;;
3175;SDS011;1599;51.564;6.990;2023-07-29T12:07:39;5.80;;;2.50;;
3175;SDS011;1599;51.564;6.990;2023-07-29T12:10:06;3.00;;;2.30;;
3175;SDS011;1599;51.564;6.990;2023-07-29T12:12:33;3.17;;;2.30;;
3175;SDS011;1599;51.564;6.990;2023-07-29T12:15:02;4.67;;;2.27;;
3175;SDS011;1599;51.564;6.990;2023-07-29T12:17:28;3.80;;;1.93;;
3175;SDS011;1599;51.564;6.990;2023-07-29T12:19:54;4.63;;;2.27;;
3175;SDS011;1599;51.564;6.990;2023-07-29T12:22:20;2.90;;;2.13;;
3175;SDS011;1599;51.564;6.990;2023-07-29T12:24:47;3.17;;;2.00;;
3175;SDS011;1599;51.564;6.990;2023-07-29T12:27:16;3.27;;;2.40;;
3175;SDS011;1599;51.564;6.990;2023-07-29T12:29:43;3.00;;;2.50;;
3175;SDS011;1599;51.564;6.990;2023-07-29T12:32:09;7.00;;;2.43;;
3175;SDS011;1599;51.564;6.990;2023-07-29T12:34:36;2.77;;;2.00;;
3175;SDS011;1599;51.564;6.990;2023-07-29T12:37:04;2.93;;;1.97;;
3175;SDS011;1599;51.564;6.990;2023-07-29T12:39:32;3.67;;;2.10;;
3175;SDS011;1599;51.564;6.990;2023-07-29T12:42:00;3.57;;;2.27;;
3175;SDS011;1599;51.564;6.990;2023-07-29T12:44:32;7.23;;;2.70;;
3175;SDS011;1599;51.564;6.990;2023-07-29T12:47:03;3.50;;;2.03;;
3175;SDS011;1599;51.564;6.990;2023-07-29T12:49:31;5.70;;;1.97;;
3175;SDS011;1599;51.564;6.990;2023-07-29T12:51:59;2.73;;;2.10;;
3175;SDS011;1599;51.564;6.990;2023-07-29T12:54:25;2.47;;;2.20;;
3175;SDS011;1599;51.564;6.990;2023-07-29T12:56:51;3.73;;;2.40;;
3175;SDS011;1599;51.564;6.990;2023-07-29T12:59:17;3.47;;;2.20;;
3175;SDS011;1599;51.564;6.990;2023-07-29T13:01:43;2.67;;;1.93;;
3175;SDS011;1599;51.564;6.990;2023-07-29T13:04:09;4.63;;;2.50;;
3175;SDS011;1599;51.564;6.990;2023-07-29T13:06:35;3.43;;;1.90;;
3175;SDS011;1599;51.564;6.990;2023-07-29T13:09:01;2.97;;;2.20;;
3175;SDS011;1599;51.564;6.990;2023-07-29T13:11:28;2.77;;;2.07;;
3175;SDS011;1599;51.564;6.990;2023-07-29T13:13:54;3.00;;;2.17;;
3175;SDS011;1599;51.564;6.990;2023-07-29T13:16:19;3.07;;;2.13;;
3175;SDS011;1599;51.564;6.990;2023-07-29T13:18:45;3.07;;;1.77;;
3175;SDS011;1599;51.564;6.990;2023-07-29T13:21:11;4.70;;;2.73;;
3175;SDS011;1599;51.564;6.990;2023-07-29T13:23:36;3.77;;;2.10;;
3175;SDS011;1599;51.564;6.990;2023-07-29T13:26:02;4.60;;;2.57;;
3175;SDS011;1599;51.564;6.990;2023-07-29T13:28:28;3.63;;;2.37;;
3175;SDS011;1599;51.564;6.990;2023-07-29T13:30:54;4.73;;;2.67;;
3175;SDS011;1599;51.564;6.990;2023-07-29T13:33:20;3.70;;;2.57;;
3175;SDS011;1599;51.564;6.990;2023-07-29T13:35:46;3.53;;;2.30;;
3175;SDS011;1599;51.564;6.990;2023-07-29T13:38:11;2.97;;;2.23;;
3175;SDS011;1599;51.564;6.990;2023-07-29T13:40:37;4.80;;;2.67;;
3175;SDS011;1599;51.564;6.990;2023-07-29T13:43:03;4.80;;;3.10;;
3175;SDS011;1599;51.564;6.990;2023-07-29T13:45:29;3.00;;;2.43;;
3175;SDS011;1599;51.564;6.990;2023-07-29T13:47:54;5.53;;;3.00;;
3175;SDS011;1599;51.564;6.990;2023-07-29T13:50:20;3.47;;;2.40;;
3175;SDS011;1599;51.564;6.990;2023-07-29T13:52:46;4.33;;;3.10;;
3175;SDS011;1599;51.564;6.990;2023-07-29T13:55:12;4.83;;;3.23;;
3175;SDS011;1599;51.564;6.990;2023-07-29T13:57:38;4.07;;;3.20;;
3175;SDS011;1599;51.564;6.990;2023-07-29T14:00:07;5.63;;;3.13;;
3175;SDS011;1599;51.564;6.990;2023-07-29T14:02:33;4.80;;;3.47;;
3175;SDS011;1599;51.564;6.990;2023-07-29T14:04:59;5.47;;;2.80;;
3175;SDS011;1599;51.564;6.990;2023-07-29T14:07:24;3.63;;;2.30;;
3175;SDS011;1599;51.564;6.990;2023-07-29T14:09:50;5.77;;;2.10;;
3175;SDS011;1599;51.564;6.990;2023-07-29T14:12:16;4.70;;;1.80;;
3175;SDS011;1599;51.564;6.990;2023-07-29T14:14:42;2.33;;;1.30;;
3175;SDS011;1599;51.564;6.990;2023-07-29T14:17:08;4.27;;;1.53;;
3175;SDS011;1599;51.564;6.990;2023-07-29T14:19:36;5.80;;;1.70;;
3175;SDS011;1599;51.564;6.990;2023-07-29T14:22:02;3.30;;;2.50;;
3175;SDS011;1599;51.564;6.990;2023-07-29T14:24:29;3.23;;;1.50;;
3175;SDS011;1599;51.564;6.990;2023-07-29T14:26:55;6.87;;;1.77;;
3175;SDS011;1599;51.564;6.990;2023-07-29T14:29:24;6.93;;;1.80;;
3175;SDS011;1599;51.564;6.990;2023-07-29T14:31:49;5.80;;;2.30;;
3175;SDS011;1599;51.564;6.990;2023-07-29T14:34:18;4.97;;;1.97;;
3175;SDS011;1599;51.564;6.990;2023-07-29T14:36:46;3.43;;;1.67;;
3175;SDS011;1599;51.564;6.990;2023-07-29T14:39:23;4.00;;;2.10;;
3175;SDS011;1599;51.564;6.990;2023-07-29T14:41:49;4.47;;;1.83;;
3175;SDS011;1599;51.564;6.990;2023-07-29T14:44:15;6.63;;;1.80;;
3175;SDS011;1599;51.564;6.990;2023-07-29T14:46:41;11.07;;;3.10;;
3175;SDS011;1599;51.564;6.990;2023-07-29T14:49:06;7.63;;;2.50;;
3175;SDS011;1599;51.564;6.990;2023-07-29T14:51:32;2.87;;;1.87;;
3175;SDS011;1599;51.564;6.990;2023-07-29T14:53:59;3.20;;;1.80;;
3175;SDS011;1599;51.564;6.990;2023-07-29T14:56:24;6.83;;;1.67;;
3175;SDS011;1599;51.564;6.990;2023-07-29T14:58:50;2.53;;;1.67;;
3175;SDS011;1599;51.564;6.990;2023-07-29T15:01:16;4.00;;;1.77;;
3175;SDS011;1599;51.564;6.990;2023-07-29T15:03:41;3.63;;;1.30;;
3175;SDS011;1599;51.564;6.990;2023-07-29T15:06:07;3.40;;;1.50;;
3175;SDS011;1599;51.564;6.990;2023-07-29T15:08:33;3.47;;;1.50;;
3175;SDS011;1599;51.564;6.990;2023-07-29T15:10:59;4.53;;;1.87;;
3175;SDS011;1599;51.564;6.990;2023-07-29T15:13:25;2.80;;;1.80;;
3175;SDS011;1599;51.564;6.990;2023-07-29T15:15:50;2.60;;;1.70;;
3175;SDS011;1599;51.564;6.990;2023-07-29T15:18:16;4.50;;;1.77;;
3175;SDS011;1599;51.564;6.990;2023-07-29T15:20:43;4.80;;;1.90;;